sensor_id;sensor_type;location;lat;lon;timestamp;P1;durP1;ratioP1;P2;durP2;ratioP2
81807;SDS011;71241;13.676;100.700;2024-03-22T00:00:57;43.90;;;32.40;;
81807;SDS011;71241;13.676;100.700;2024-03-22T00:03:27;46.30;;;32.33;;
81807;SDS011;71241;13.676;100.700;2024-03-22T00:06:02;49.10;;;37.20;;
81807;SDS011;71241;13.676;100.700;2024-03-22T00:08:30;45.38;;;31.20;;
81807;SDS011;71241;13.676;100.700;2024-03-22T00:10:59;45.67;;;32.53;;
81807;SDS011;71241;13.676;100.700;2024-03-22T00:13:33;43.30;;;33.00;;
81807;SDS011;71241;13.676;100.700;2024-03-22T00:16:01;43.35;;;30.73;;
81807;SDS011;71241;13.676;100.700;2024-03-22T00:18:32;43.90;;;32.13;;
81807;SDS011;71241;13.676;100.700;2024-03-22T00:21:03;43.22;;;30.08;;
81807;SDS011;71241;13.676;100.700;2024-03-22T00:23:32;42.75;;;30.98;;
81807;SDS011;71241;13.676;100.700;2024-03-22T00:26:04;47.10;;;31.48;;
81807;SDS011;71241;13.676;100.700;2024-03-22T00:28:32;48.42;;;32.30;;
81807;SDS011;71241;13.676;100.700;2024-03-22T00:31:00;41.30;;;30.35;;
81807;SDS011;71241;13.676;100.700;2024-03-22T00:33:36;48.15;;;35.05;;
81807;SDS011;71241;13.676;100.700;2024-03-22T00:36:08;44.25;;;30.80;;
81807;SDS011;71241;13.676;100.700;2024-03-22T00:38:37;43.50;;;31.88;;
81807;SDS011;71241;13.676;100.700;2024-03-22T00:41:15;41.97;;;27.45;;
81807;SDS011;71241;13.676;100.700;2024-03-22T00:43:43;40.75;;;30.27;;
81807;SDS011;71241;13.676;100.700;2024-03-22T00:46:12;43.55;;;27.90;;
81807;SDS011;71241;13.676;100.700;2024-03-22T00:48:42;41.25;;;27.48;;
81807;SDS011;71241;13.676;100.700;2024-03-22T00:51:11;39.40;;;32.42;;
81807;SDS011;71241;13.676;100.700;2024-03-22T00:53:39;41.72;;;28.02;;
81807;SDS011;71241;13.676;100.700;2024-03-22T00:56:08;40.00;;;29.50;;
81807;SDS011;71241;13.676;100.700;2024-03-22T00:58:36;39.38;;;28.42;;
81807;SDS011;71241;13.676;100.700;2024-03-22T01:01:05;35.22;;;24.67;;
81807;SDS011;71241;13.676;100.700;2024-03-22T01:03:36;36.63;;;25.15;;
81807;SDS011;71241;13.676;100.700;2024-03-22T01:06:09;41.45;;;25.92;;
81807;SDS011;71241;13.676;100.700;2024-03-22T01:08:38;33.50;;;25.38;;
81807;SDS011;71241;13.676;100.700;2024-03-22T01:11:09;30.20;;;22.45;;
81807;SDS011;71241;13.676;100.700;2024-03-22T01:13:38;34.53;;;26.85;;
81807;SDS011;71241;13.676;100.700;2024-03-22T01:16:06;31.15;;;24.80;;
81807;SDS011;71241;13.676;100.700;2024-03-22T01:18:36;34.35;;;24.02;;
81807;SDS011;71241;13.676;100.700;2024-03-22T01:21:05;29.52;;;23.38;;
81807;SDS011;71241;13.676;100.700;2024-03-22T01:23:35;28.35;;;21.98;;
81807;SDS011;71241;13.676;100.700;2024-03-22T01:26:06;31.08;;;24.33;;
81807;SDS011;71241;13.676;100.700;2024-03-22T01:28:42;32.58;;;23.48;;
81807;SDS011;71241;13.676;100.700;2024-03-22T01:31:10;30.02;;;23.45;;
81807;SDS011;71241;13.676;100.700;2024-03-22T01:33:39;33.35;;;24.63;;
81807;SDS011;71241;13.676;100.700;2024-03-22T01:36:09;28.38;;;23.70;;
81807;SDS011;71241;13.676;100.700;2024-03-22T01:38:39;28.23;;;24.10;;
81807;SDS011;71241;13.676;100.700;2024-03-22T01:41:08;33.20;;;24.40;;
81807;SDS011;71241;13.676;100.700;2024-03-22T01:43:36;34.20;;;23.38;;
81807;SDS011;71241;13.676;100.700;2024-03-22T01:46:05;33.13;;;23.92;;
81807;SDS011;71241;13.676;100.700;2024-03-22T01:48:36;32.63;;;22.25;;
81807;SDS011;71241;13.676;100.700;2024-03-22T01:51:05;29.17;;;22.30;;
81807;SDS011;71241;13.676;100.700;2024-03-22T01:53:33;30.15;;;23.67;;
81807;SDS011;71241;13.676;100.700;2024-03-22T01:56:05;29.90;;;23.73;;
81807;SDS011;71241;13.676;100.700;2024-03-22T01:58:34;33.03;;;24.73;;
81807;SDS011;71241;13.676;100.700;2024-03-22T02:01:03;30.20;;;23.20;;
81807;SDS011;71241;13.676;100.700;2024-03-22T02:03:31;27.83;;;21.20;;
81807;SDS011;71241;13.676;100.700;2024-03-22T02:06:00;26.73;;;21.05;;
81807;SDS011;71241;13.676;100.700;2024-03-22T02:08:29;27.83;;;22.52;;
81807;SDS011;71241;13.676;100.700;2024-03-22T02:10:58;27.10;;;21.67;;
81807;SDS011;71241;13.676;100.700;2024-03-22T02:13:28;28.98;;;22.27;;
81807;SDS011;71241;13.676;100.700;2024-03-22T02:15:57;28.77;;;22.23;;
81807;SDS011;71241;13.676;100.700;2024-03-22T02:18:25;28.17;;;20.77;;
81807;SDS011;71241;13.676;100.700;2024-03-22T02:20:54;33.10;;;26.13;;
81807;SDS011;71241;13.676;100.700;2024-03-22T02:23:31;28.52;;;25.13;;
81807;SDS011;71241;13.676;100.700;2024-03-22T02:26:00;30.55;;;23.65;;
81807;SDS011;71241;13.676;100.700;2024-03-22T02:28:29;29.45;;;22.67;;
81807;SDS011;71241;13.676;100.700;2024-03-22T02:30:59;29.48;;;25.70;;
81807;SDS011;71241;13.676;100.700;2024-03-22T02:33:27;32.97;;;23.10;;
81807;SDS011;71241;13.676;100.700;2024-03-22T02:35:56;31.63;;;22.70;;
81807;SDS011;71241;13.676;100.700;2024-03-22T02:38:24;31.98;;;22.83;;
81807;SDS011;71241;13.676;100.700;2024-03-22T02:40:55;29.15;;;22.00;;
81807;SDS011;71241;13.676;100.700;2024-03-22T02:43:25;31.27;;;21.45;;
81807;SDS011;71241;13.676;100.700;2024-03-22T02:45:53;25.17;;;19.58;;
81807;SDS011;71241;13.676;100.700;2024-03-22T02:48:22;27.48;;;20.42;;
81807;SDS011;71241;13.676;100.700;2024-03-22T02:50:56;27.58;;;20.05;;
81807;SDS011;71241;13.676;100.700;2024-03-22T02:53:25;26.50;;;21.08;;
81807;SDS011;71241;13.676;100.700;2024-03-22T02:55:55;32.35;;;22.42;;
81807;SDS011;71241;13.676;100.700;2024-03-22T02:58:23;29.33;;;21.48;;
81807;SDS011;71241;13.676;100.700;2024-03-22T03:00:52;27.88;;;20.95;;
81807;SDS011;71241;13.676;100.700;2024-03-22T03:03:20;28.55;;;21.00;;
81807;SDS011;71241;13.676;100.700;2024-03-22T03:05:49;23.73;;;19.98;;
81807;SDS011;71241;13.676;100.700;2024-03-22T03:08:19;29.15;;;21.17;;
81807;SDS011;71241;13.676;100.700;2024-03-22T03:10:47;27.00;;;20.63;;
81807;SDS011;71241;13.676;100.700;2024-03-22T03:13:18;22.17;;;19.75;;
81807;SDS011;71241;13.676;100.700;2024-03-22T03:15:46;28.00;;;20.95;;
81807;SDS011;71241;13.676;100.700;2024-03-22T03:18:14;30.20;;;22.27;;
81807;SDS011;71241;13.676;100.700;2024-03-22T03:20:43;26.45;;;20.42;;
81807;SDS011;71241;13.676;100.700;2024-03-22T03:23:11;23.35;;;19.23;;
81807;SDS011;71241;13.676;100.700;2024-03-22T03:25:40;28.83;;;19.83;;
81807;SDS011;71241;13.676;100.700;2024-03-22T03:28:08;28.00;;;22.40;;
81807;SDS011;71241;13.676;100.700;2024-03-22T03:30:39;28.73;;;22.15;;
81807;SDS011;71241;13.676;100.700;2024-03-22T03:33:13;29.30;;;21.23;;
81807;SDS011;71241;13.676;100.700;2024-03-22T03:35:45;25.90;;;21.13;;
81807;SDS011;71241;13.676;100.700;2024-03-22T03:38:13;26.73;;;20.02;;
81807;SDS011;71241;13.676;100.700;2024-03-22T03:40:42;28.45;;;21.30;;
81807;SDS011;71241;13.676;100.700;2024-03-22T03:43:11;26.80;;;19.42;;
81807;SDS011;71241;13.676;100.700;2024-03-22T03:45:41;25.52;;;20.42;;
81807;SDS011;71241;13.676;100.700;2024-03-22T03:48:15;28.70;;;22.75;;
81807;SDS011;71241;13.676;100.700;2024-03-22T03:50:50;25.83;;;20.77;;
81807;SDS011;71241;13.676;100.700;2024-03-22T03:53:23;28.08;;;20.95;;
81807;SDS011;71241;13.676;100.700;2024-03-22T03:55:52;28.42;;;21.77;;
81807;SDS011;71241;13.676;100.700;2024-03-22T03:58:20;28.38;;;22.10;;
81807;SDS011;71241;13.676;100.700;2024-03-22T04:00:50;30.88;;;21.88;;
81807;SDS011;71241;13.676;100.700;2024-03-22T04:03:19;25.02;;;22.05;;
81807;SDS011;71241;13.676;100.700;2024-03-22T04:05:55;25.23;;;20.85;;
81807;SDS011;71241;13.676;100.700;2024-03-22T04:08:24;29.05;;;22.00;;
81807;SDS011;71241;13.676;100.700;2024-03-22T04:10:53;31.98;;;23.92;;
81807;SDS011;71241;13.676;100.700;2024-03-22T04:13:23;29.17;;;23.13;;
81807;SDS011;71241;13.676;100.700;2024-03-22T04:15:54;25.45;;;21.25;;
81807;SDS011;71241;13.676;100.700;2024-03-22T04:18:25;25.52;;;21.27;;
81807;SDS011;71241;13.676;100.700;2024-03-22T04:20:54;32.65;;;23.42;;
81807;SDS011;71241;13.676;100.700;2024-03-22T04:23:22;30.05;;;26.65;;
81807;SDS011;71241;13.676;100.700;2024-03-22T04:25:53;27.70;;;23.02;;
81807;SDS011;71241;13.676;100.700;2024-03-22T04:28:22;24.38;;;21.45;;
81807;SDS011;71241;13.676;100.700;2024-03-22T04:30:56;29.55;;;22.00;;
81807;SDS011;71241;13.676;100.700;2024-03-22T04:33:26;28.15;;;22.40;;
81807;SDS011;71241;13.676;100.700;2024-03-22T04:35:55;28.55;;;22.35;;
81807;SDS011;71241;13.676;100.700;2024-03-22T04:38:24;28.27;;;22.02;;
81807;SDS011;71241;13.676;100.700;2024-03-22T04:40:52;25.42;;;20.95;;
81807;SDS011;71241;13.676;100.700;2024-03-22T04:43:21;32.38;;;22.63;;
81807;SDS011;71241;13.676;100.700;2024-03-22T04:45:51;25.77;;;22.35;;
81807;SDS011;71241;13.676;100.700;2024-03-22T04:48:21;25.90;;;20.52;;
81807;SDS011;71241;13.676;100.700;2024-03-22T04:50:51;22.88;;;19.65;;
81807;SDS011;71241;13.676;100.700;2024-03-22T04:53:20;30.88;;;19.52;;
81807;SDS011;71241;13.676;100.700;2024-03-22T04:55:49;25.35;;;18.73;;
81807;SDS011;71241;13.676;100.700;2024-03-22T04:58:18;24.20;;;19.88;;
81807;SDS011;71241;13.676;100.700;2024-03-22T05:00:47;22.55;;;19.75;;
81807;SDS011;71241;13.676;100.700;2024-03-22T05:03:16;24.52;;;21.05;;
81807;SDS011;71241;13.676;100.700;2024-03-22T05:05:46;25.08;;;21.08;;
81807;SDS011;71241;13.676;100.700;2024-03-22T05:08:16;25.42;;;19.75;;
81807;SDS011;71241;13.676;100.700;2024-03-22T05:10:45;24.90;;;18.83;;
81807;SDS011;71241;13.676;100.700;2024-03-22T05:13:13;24.35;;;19.70;;
81807;SDS011;71241;13.676;100.700;2024-03-22T05:15:42;24.92;;;20.10;;
81807;SDS011;71241;13.676;100.700;2024-03-22T05:18:10;26.15;;;19.88;;
81807;SDS011;71241;13.676;100.700;2024-03-22T05:20:39;24.27;;;18.95;;
81807;SDS011;71241;13.676;100.700;2024-03-22T05:23:09;22.23;;;19.27;;
81807;SDS011;71241;13.676;100.700;2024-03-22T05:25:37;23.92;;;20.38;;
81807;SDS011;71241;13.676;100.700;2024-03-22T05:28:06;22.45;;;18.48;;
81807;SDS011;71241;13.676;100.700;2024-03-22T05:30:34;23.10;;;19.55;;
81807;SDS011;71241;13.676;100.700;2024-03-22T05:33:03;24.45;;;20.77;;
81807;SDS011;71241;13.676;100.700;2024-03-22T05:35:32;22.75;;;19.17;;
81807;SDS011;71241;13.676;100.700;2024-03-22T05:38:00;38.38;;;21.42;;
81807;SDS011;71241;13.676;100.700;2024-03-22T05:40:30;24.13;;;19.58;;
81807;SDS011;71241;13.676;100.700;2024-03-22T05:42:59;23.08;;;20.58;;
81807;SDS011;71241;13.676;100.700;2024-03-22T05:45:28;23.98;;;20.70;;
81807;SDS011;71241;13.676;100.700;2024-03-22T05:47:56;23.60;;;20.60;;
81807;SDS011;71241;13.676;100.700;2024-03-22T05:50:25;25.73;;;21.27;;
81807;SDS011;71241;13.676;100.700;2024-03-22T05:52:53;22.05;;;19.45;;
81807;SDS011;71241;13.676;100.700;2024-03-22T05:55:22;28.00;;;20.05;;
81807;SDS011;71241;13.676;100.700;2024-03-22T05:57:56;24.42;;;19.88;;
81807;SDS011;71241;13.676;100.700;2024-03-22T06:00:24;22.80;;;18.73;;
81807;SDS011;71241;13.676;100.700;2024-03-22T06:02:53;23.05;;;19.48;;
81807;SDS011;71241;13.676;100.700;2024-03-22T06:05:21;20.80;;;18.42;;
81807;SDS011;71241;13.676;100.700;2024-03-22T06:07:50;23.00;;;18.73;;
81807;SDS011;71241;13.676;100.700;2024-03-22T06:10:18;27.65;;;17.80;;
81807;SDS011;71241;13.676;100.700;2024-03-22T06:12:46;24.73;;;19.48;;
81807;SDS011;71241;13.676;100.700;2024-03-22T06:15:17;21.95;;;19.20;;
81807;SDS011;71241;13.676;100.700;2024-03-22T06:17:45;22.67;;;16.92;;
81807;SDS011;71241;13.676;100.700;2024-03-22T06:20:13;21.15;;;17.42;;
81807;SDS011;71241;13.676;100.700;2024-03-22T06:22:42;20.15;;;16.42;;
81807;SDS011;71241;13.676;100.700;2024-03-22T06:25:10;21.83;;;16.80;;
81807;SDS011;71241;13.676;100.700;2024-03-22T06:27:39;19.67;;;17.45;;
81807;SDS011;71241;13.676;100.700;2024-03-22T06:30:07;22.95;;;16.67;;
81807;SDS011;71241;13.676;100.700;2024-03-22T06:32:38;21.05;;;16.08;;
81807;SDS011;71241;13.676;100.700;2024-03-22T06:35:07;18.45;;;16.50;;
81807;SDS011;71241;13.676;100.700;2024-03-22T06:37:35;23.05;;;18.35;;
81807;SDS011;71241;13.676;100.700;2024-03-22T06:40:04;22.40;;;18.88;;
81807;SDS011;71241;13.676;100.700;2024-03-22T06:42:33;23.08;;;17.75;;
81807;SDS011;71241;13.676;100.700;2024-03-22T06:45:02;25.70;;;17.35;;
81807;SDS011;71241;13.676;100.700;2024-03-22T06:47:31;21.52;;;16.55;;
81807;SDS011;71241;13.676;100.700;2024-03-22T06:50:01;23.45;;;19.23;;
81807;SDS011;71241;13.676;100.700;2024-03-22T06:52:30;19.77;;;16.95;;
81807;SDS011;71241;13.676;100.700;2024-03-22T06:54:58;21.60;;;17.02;;
81807;SDS011;71241;13.676;100.700;2024-03-22T06:57:27;22.75;;;17.77;;
81807;SDS011;71241;13.676;100.700;2024-03-22T06:59:56;20.60;;;17.15;;
81807;SDS011;71241;13.676;100.700;2024-03-22T07:02:25;23.73;;;16.88;;
81807;SDS011;71241;13.676;100.700;2024-03-22T07:04:53;20.45;;;17.58;;
81807;SDS011;71241;13.676;100.700;2024-03-22T07:07:23;23.95;;;17.45;;
81807;SDS011;71241;13.676;100.700;2024-03-22T07:09:52;22.27;;;17.95;;
81807;SDS011;71241;13.676;100.700;2024-03-22T07:12:20;24.27;;;18.67;;
81807;SDS011;71241;13.676;100.700;2024-03-22T07:14:49;21.92;;;17.92;;
81807;SDS011;71241;13.676;100.700;2024-03-22T07:17:18;21.25;;;17.08;;
81807;SDS011;71241;13.676;100.700;2024-03-22T07:19:51;21.67;;;17.60;;
81807;SDS011;71241;13.676;100.700;2024-03-22T07:22:19;24.15;;;17.33;;
81807;SDS011;71241;13.676;100.700;2024-03-22T07:24:50;20.83;;;17.92;;
81807;SDS011;71241;13.676;100.700;2024-03-22T07:27:18;21.38;;;18.55;;
81807;SDS011;71241;13.676;100.700;2024-03-22T07:29:47;20.33;;;18.02;;
81807;SDS011;71241;13.676;100.700;2024-03-22T07:32:15;22.02;;;17.92;;
81807;SDS011;71241;13.676;100.700;2024-03-22T07:34:46;21.35;;;17.92;;
81807;SDS011;71241;13.676;100.700;2024-03-22T07:37:14;22.10;;;18.30;;
81807;SDS011;71241;13.676;100.700;2024-03-22T07:39:43;22.27;;;17.42;;
81807;SDS011;71241;13.676;100.700;2024-03-22T07:42:13;20.65;;;18.25;;
81807;SDS011;71241;13.676;100.700;2024-03-22T07:44:41;22.83;;;18.58;;
81807;SDS011;71241;13.676;100.700;2024-03-22T07:47:10;26.13;;;18.58;;
81807;SDS011;71241;13.676;100.700;2024-03-22T07:49:38;22.20;;;19.05;;
81807;SDS011;71241;13.676;100.700;2024-03-22T07:52:07;23.40;;;19.67;;
81807;SDS011;71241;13.676;100.700;2024-03-22T07:54:36;22.27;;;19.63;;
81807;SDS011;71241;13.676;100.700;2024-03-22T07:57:04;25.80;;;20.00;;
81807;SDS011;71241;13.676;100.700;2024-03-22T07:59:35;24.05;;;18.75;;
81807;SDS011;71241;13.676;100.700;2024-03-22T08:02:04;25.92;;;21.75;;
81807;SDS011;71241;13.676;100.700;2024-03-22T08:04:32;22.65;;;19.27;;
81807;SDS011;71241;13.676;100.700;2024-03-22T08:07:01;23.75;;;19.30;;
81807;SDS011;71241;13.676;100.700;2024-03-22T08:09:29;21.35;;;18.02;;
81807;SDS011;71241;13.676;100.700;2024-03-22T08:11:58;24.90;;;20.98;;
81807;SDS011;71241;13.676;100.700;2024-03-22T08:14:26;26.15;;;18.50;;
81807;SDS011;71241;13.676;100.700;2024-03-22T08:16:56;24.42;;;19.48;;
81807;SDS011;71241;13.676;100.700;2024-03-22T08:19:25;25.05;;;19.40;;
81807;SDS011;71241;13.676;100.700;2024-03-22T08:21:53;22.10;;;19.42;;
81807;SDS011;71241;13.676;100.700;2024-03-22T08:24:21;21.73;;;18.30;;
81807;SDS011;71241;13.676;100.700;2024-03-22T08:26:50;23.90;;;19.35;;
81807;SDS011;71241;13.676;100.700;2024-03-22T08:29:18;26.98;;;19.20;;
81807;SDS011;71241;13.676;100.700;2024-03-22T08:31:47;24.42;;;17.88;;
81807;SDS011;71241;13.676;100.700;2024-03-22T08:34:19;22.10;;;18.38;;
81807;SDS011;71241;13.676;100.700;2024-03-22T08:36:48;21.73;;;16.67;;
81807;SDS011;71241;13.676;100.700;2024-03-22T08:39:16;26.58;;;18.02;;
81807;SDS011;71241;13.676;100.700;2024-03-22T08:41:45;20.90;;;17.55;;
81807;SDS011;71241;13.676;100.700;2024-03-22T08:44:13;25.88;;;17.67;;
81807;SDS011;71241;13.676;100.700;2024-03-22T08:46:42;25.35;;;17.40;;
81807;SDS011;71241;13.676;100.700;2024-03-22T08:49:11;29.20;;;19.17;;
81807;SDS011;71241;13.676;100.700;2024-03-22T08:51:41;23.10;;;18.23;;
81807;SDS011;71241;13.676;100.700;2024-03-22T08:54:09;23.83;;;18.00;;
81807;SDS011;71241;13.676;100.700;2024-03-22T08:56:38;22.67;;;17.88;;
81807;SDS011;71241;13.676;100.700;2024-03-22T08:59:06;22.95;;;19.33;;
81807;SDS011;71241;13.676;100.700;2024-03-22T09:01:35;22.15;;;18.00;;
81807;SDS011;71241;13.676;100.700;2024-03-22T09:04:04;23.20;;;17.88;;
81807;SDS011;71241;13.676;100.700;2024-03-22T09:06:33;23.90;;;16.77;;
81807;SDS011;71241;13.676;100.700;2024-03-22T09:09:03;21.90;;;18.23;;
81807;SDS011;71241;13.676;100.700;2024-03-22T09:11:33;24.10;;;18.23;;
81807;SDS011;71241;13.676;100.700;2024-03-22T09:14:01;25.38;;;18.42;;
81807;SDS011;71241;13.676;100.700;2024-03-22T09:16:29;24.55;;;19.45;;
81807;SDS011;71241;13.676;100.700;2024-03-22T09:18:58;22.48;;;17.48;;
81807;SDS011;71241;13.676;100.700;2024-03-22T09:21:26;20.80;;;18.58;;
81807;SDS011;71241;13.676;100.700;2024-03-22T09:23:55;24.20;;;18.38;;
81807;SDS011;71241;13.676;100.700;2024-03-22T09:26:25;20.95;;;16.73;;
81807;SDS011;71241;13.676;100.700;2024-03-22T09:28:53;22.63;;;17.02;;
81807;SDS011;71241;13.676;100.700;2024-03-22T09:31:22;23.00;;;17.20;;
81807;SDS011;71241;13.676;100.700;2024-03-22T09:33:50;23.40;;;18.17;;
81807;SDS011;71241;13.676;100.700;2024-03-22T09:36:19;20.58;;;17.15;;
81807;SDS011;71241;13.676;100.700;2024-03-22T09:38:48;21.42;;;17.05;;
81807;SDS011;71241;13.676;100.700;2024-03-22T09:41:17;22.35;;;16.48;;
81807;SDS011;71241;13.676;100.700;2024-03-22T09:43:53;21.92;;;17.60;;
81807;SDS011;71241;13.676;100.700;2024-03-22T09:46:22;21.48;;;17.40;;
81807;SDS011;71241;13.676;100.700;2024-03-22T09:48:51;23.00;;;20.05;;
81807;SDS011;71241;13.676;100.700;2024-03-22T09:51:23;25.38;;;22.77;;
81807;SDS011;71241;13.676;100.700;2024-03-22T09:53:52;23.88;;;18.92;;
81807;SDS011;71241;13.676;100.700;2024-03-22T09:56:22;21.38;;;19.30;;
81807;SDS011;71241;13.676;100.700;2024-03-22T09:58:53;22.30;;;18.65;;
81807;SDS011;71241;13.676;100.700;2024-03-22T10:01:22;26.42;;;19.52;;
81807;SDS011;71241;13.676;100.700;2024-03-22T10:03:52;19.85;;;17.75;;
81807;SDS011;71241;13.676;100.700;2024-03-22T10:06:21;21.92;;;18.48;;
81807;SDS011;71241;13.676;100.700;2024-03-22T10:08:50;22.83;;;20.55;;
81807;SDS011;71241;13.676;100.700;2024-03-22T10:11:19;21.70;;;19.52;;
81807;SDS011;71241;13.676;100.700;2024-03-22T10:13:47;23.92;;;19.45;;
81807;SDS011;71241;13.676;100.700;2024-03-22T10:16:19;22.65;;;18.75;;
81807;SDS011;71241;13.676;100.700;2024-03-22T10:18:48;26.02;;;23.38;;
81807;SDS011;71241;13.676;100.700;2024-03-22T10:21:17;21.10;;;19.00;;
81807;SDS011;71241;13.676;100.700;2024-03-22T10:23:46;22.98;;;20.85;;
81807;SDS011;71241;13.676;100.700;2024-03-22T10:26:15;20.60;;;18.30;;
81807;SDS011;71241;13.676;100.700;2024-03-22T10:28:44;20.40;;;17.63;;
81807;SDS011;71241;13.676;100.700;2024-03-22T10:31:13;21.67;;;19.40;;
81807;SDS011;71241;13.676;100.700;2024-03-22T10:33:44;22.58;;;19.92;;
81807;SDS011;71241;13.676;100.700;2024-03-22T10:36:12;19.70;;;17.73;;
81807;SDS011;71241;13.676;100.700;2024-03-22T10:38:41;23.02;;;17.50;;
81807;SDS011;71241;13.676;100.700;2024-03-22T10:41:11;21.30;;;18.88;;
81807;SDS011;71241;13.676;100.700;2024-03-22T10:43:39;21.48;;;18.13;;
81807;SDS011;71241;13.676;100.700;2024-03-22T10:46:08;21.88;;;16.77;;
81807;SDS011;71241;13.676;100.700;2024-03-22T10:48:36;22.05;;;18.20;;
81807;SDS011;71241;13.676;100.700;2024-03-22T10:51:07;23.60;;;19.67;;
81807;SDS011;71241;13.676;100.700;2024-03-22T10:53:36;21.15;;;17.65;;
81807;SDS011;71241;13.676;100.700;2024-03-22T10:56:06;19.38;;;17.33;;
81807;SDS011;71241;13.676;100.700;2024-03-22T10:58:39;20.23;;;17.40;;
81807;SDS011;71241;13.676;100.700;2024-03-22T11:01:11;20.38;;;17.63;;
81807;SDS011;71241;13.676;100.700;2024-03-22T11:03:50;20.90;;;18.20;;
81807;SDS011;71241;13.676;100.700;2024-03-22T11:06:21;22.55;;;17.92;;
81807;SDS011;71241;13.676;100.700;2024-03-22T11:08:50;22.27;;;16.08;;
81807;SDS011;71241;13.676;100.700;2024-03-22T11:11:19;24.63;;;17.02;;
81807;SDS011;71241;13.676;100.700;2024-03-22T11:13:47;21.23;;;18.35;;
81807;SDS011;71241;13.676;100.700;2024-03-22T11:16:19;18.92;;;17.00;;
81807;SDS011;71241;13.676;100.700;2024-03-22T11:18:48;20.92;;;17.85;;
81807;SDS011;71241;13.676;100.700;2024-03-22T11:21:16;21.88;;;17.85;;
81807;SDS011;71241;13.676;100.700;2024-03-22T11:23:47;23.52;;;19.00;;
81807;SDS011;71241;13.676;100.700;2024-03-22T11:26:19;24.88;;;21.50;;
81807;SDS011;71241;13.676;100.700;2024-03-22T11:28:48;19.88;;;17.27;;
81807;SDS011;71241;13.676;100.700;2024-03-22T11:31:17;20.23;;;17.45;;
81807;SDS011;71241;13.676;100.700;2024-03-22T11:33:56;18.77;;;14.48;;
81807;SDS011;71241;13.676;100.700;2024-03-22T11:39:26;17.70;;;15.13;;
81807;SDS011;71241;13.676;100.700;2024-03-22T11:41:55;19.08;;;14.75;;
81807;SDS011;71241;13.676;100.700;2024-03-22T11:44:31;19.45;;;14.45;;
81807;SDS011;71241;13.676;100.700;2024-03-22T11:47:00;16.77;;;14.27;;
81807;SDS011;71241;13.676;100.700;2024-03-22T11:49:30;18.88;;;15.93;;
81807;SDS011;71241;13.676;100.700;2024-03-22T11:51:58;20.13;;;18.02;;
81807;SDS011;71241;13.676;100.700;2024-03-22T11:54:29;18.17;;;15.57;;
81807;SDS011;71241;13.676;100.700;2024-03-22T11:56:58;19.75;;;16.88;;
81807;SDS011;71241;13.676;100.700;2024-03-22T11:59:26;20.55;;;18.00;;
81807;SDS011;71241;13.676;100.700;2024-03-22T12:01:55;19.90;;;16.85;;
81807;SDS011;71241;13.676;100.700;2024-03-22T12:04:24;20.25;;;17.23;;
81807;SDS011;71241;13.676;100.700;2024-03-22T12:06:55;21.20;;;16.58;;
81807;SDS011;71241;13.676;100.700;2024-03-22T12:09:24;19.30;;;15.77;;
81807;SDS011;71241;13.676;100.700;2024-03-22T12:11:56;23.40;;;20.80;;
81807;SDS011;71241;13.676;100.700;2024-03-22T12:14:28;20.38;;;18.17;;
81807;SDS011;71241;13.676;100.700;2024-03-22T12:17:00;19.90;;;17.17;;
81807;SDS011;71241;13.676;100.700;2024-03-22T12:19:29;23.23;;;17.05;;
81807;SDS011;71241;13.676;100.700;2024-03-22T12:22:00;21.45;;;17.02;;
81807;SDS011;71241;13.676;100.700;2024-03-22T12:24:29;21.38;;;16.83;;
81807;SDS011;71241;13.676;100.700;2024-03-22T12:27:00;21.80;;;18.35;;
81807;SDS011;71241;13.676;100.700;2024-03-22T12:29:29;20.77;;;16.40;;
81807;SDS011;71241;13.676;100.700;2024-03-22T12:32:00;17.98;;;15.65;;
81807;SDS011;71241;13.676;100.700;2024-03-22T12:34:31;22.42;;;17.83;;
81807;SDS011;71241;13.676;100.700;2024-03-22T12:37:02;19.60;;;16.30;;
81807;SDS011;71241;13.676;100.700;2024-03-22T12:39:37;21.30;;;18.75;;
81807;SDS011;71241;13.676;100.700;2024-03-22T12:42:10;21.65;;;17.52;;
81807;SDS011;71241;13.676;100.700;2024-03-22T12:44:39;22.67;;;16.60;;
81807;SDS011;71241;13.676;100.700;2024-03-22T12:47:10;21.00;;;15.85;;
81807;SDS011;71241;13.676;100.700;2024-03-22T12:49:42;21.35;;;16.30;;
81807;SDS011;71241;13.676;100.700;2024-03-22T12:52:13;21.15;;;17.23;;
81807;SDS011;71241;13.676;100.700;2024-03-22T12:54:42;24.42;;;19.17;;
81807;SDS011;71241;13.676;100.700;2024-03-22T12:57:13;22.27;;;19.83;;
81807;SDS011;71241;13.676;100.700;2024-03-22T12:59:42;23.35;;;18.08;;
81807;SDS011;71241;13.676;100.700;2024-03-22T13:02:10;21.98;;;17.20;;
81807;SDS011;71241;13.676;100.700;2024-03-22T13:04:39;23.40;;;18.58;;
81807;SDS011;71241;13.676;100.700;2024-03-22T13:07:08;21.92;;;16.50;;
81807;SDS011;71241;13.676;100.700;2024-03-22T13:09:37;20.60;;;14.85;;
81807;SDS011;71241;13.676;100.700;2024-03-22T13:12:07;20.25;;;18.15;;
81807;SDS011;71241;13.676;100.700;2024-03-22T13:14:38;23.25;;;17.83;;
81807;SDS011;71241;13.676;100.700;2024-03-22T13:17:06;19.88;;;15.75;;
81807;SDS011;71241;13.676;100.700;2024-03-22T13:19:36;18.08;;;15.43;;
81807;SDS011;71241;13.676;100.700;2024-03-22T13:22:07;18.98;;;15.05;;
81807;SDS011;71241;13.676;100.700;2024-03-22T13:24:36;20.20;;;15.00;;
81807;SDS011;71241;13.676;100.700;2024-03-22T13:27:05;17.30;;;14.95;;
81807;SDS011;71241;13.676;100.700;2024-03-22T13:29:35;18.58;;;14.90;;
81807;SDS011;71241;13.676;100.700;2024-03-22T13:32:13;16.15;;;14.27;;
81807;SDS011;71241;13.676;100.700;2024-03-22T13:34:41;15.45;;;12.88;;
81807;SDS011;71241;13.676;100.700;2024-03-22T13:37:10;16.35;;;12.38;;
81807;SDS011;71241;13.676;100.700;2024-03-22T13:39:39;16.30;;;14.15;;
81807;SDS011;71241;13.676;100.700;2024-03-22T13:42:08;16.50;;;14.52;;
81807;SDS011;71241;13.676;100.700;2024-03-22T13:44:41;18.30;;;16.60;;
81807;SDS011;71241;13.676;100.700;2024-03-22T13:47:10;18.15;;;16.35;;
81807;SDS011;71241;13.676;100.700;2024-03-22T13:49:39;18.38;;;16.63;;
81807;SDS011;71241;13.676;100.700;2024-03-22T13:52:11;15.63;;;13.70;;
81807;SDS011;71241;13.676;100.700;2024-03-22T13:54:52;14.60;;;12.30;;
81807;SDS011;71241;13.676;100.700;2024-03-22T14:00:50;18.05;;;16.35;;
81807;SDS011;71241;13.676;100.700;2024-03-22T14:03:19;15.10;;;13.50;;
81807;SDS011;71241;13.676;100.700;2024-03-22T14:05:47;15.70;;;12.95;;
81807;SDS011;71241;13.676;100.700;2024-03-22T14:08:16;14.75;;;10.73;;
81807;SDS011;71241;13.676;100.700;2024-03-22T14:10:45;16.13;;;14.05;;
81807;SDS011;71241;13.676;100.700;2024-03-22T14:13:14;16.45;;;12.18;;
81807;SDS011;71241;13.676;100.700;2024-03-22T14:15:42;18.13;;;14.82;;